Riverview, Michigan
Current Conditions -  °F | °C
As of 11:14 AM on Sunday 23 Nov 2014 (Local Time) from KONZ Reporting Station
Haze Haze  
Wind Chill: 37°   Ceiling: 8000
Heat Index: 41°   Visibility: 5mi
Dew Point: 37°   Wind: 6mph
Humidity: 87%   Direction: 150°SSE
Pressure: 29.91"   Gusts: NA
Location:  42.18°N, 83.19°W
Report Text: KONZ 231614Z AUTO 15005KT 5SM BR SCT030 BKN080 OVC090 05/03 A2991 RMK AO2
Loading
Personal Weather Stations






























Interactive Weather Map New forecast layout! Learn more

10-Day Weather Forecast

Advertisements
Track Severe Weather on mobile